createdAt,value
2023-10-09T00:01:20.034Z,3.30
2023-10-09T00:03:57.429Z,5.70
2023-10-09T00:06:42.183Z,2.00
2023-10-09T00:26:43.833Z,1.40
2023-10-09T00:34:03.070Z,2.60
2023-10-09T00:36:50.770Z,3.50
2023-10-09T00:39:41.635Z,1.20
2023-10-09T00:42:29.187Z,2.00
2023-10-09T00:45:18.020Z,3.10
2023-10-09T00:48:57.088Z,2.80
2023-10-09T00:51:37.240Z,1.90
2023-10-09T00:54:41.764Z,3.00
2023-10-09T00:57:25.897Z,1.70
2023-10-09T01:00:32.123Z,2.00
2023-10-09T01:03:23.301Z,2.50
2023-10-09T01:06:44.387Z,3.00
2023-10-09T01:10:36.638Z,1.90
2023-10-09T01:13:10.892Z,1.90
2023-10-09T01:15:53.749Z,4.30
2023-10-09T01:23:00.091Z,2.10
2023-10-09T01:25:54.332Z,3.20
2023-10-09T01:28:26.335Z,3.40
2023-10-09T01:49:35.575Z,5.00
2023-10-09T01:52:24.646Z,5.40
2023-10-09T01:55:47.157Z,4.80
2023-10-09T01:59:10.859Z,3.60
2023-10-09T02:02:02.677Z,5.40
2023-10-09T02:14:24.807Z,6.00
2023-10-09T02:17:04.044Z,3.30
2023-10-09T02:19:56.924Z,4.00
2023-10-09T02:23:00.696Z,4.90
2023-10-09T02:25:43.378Z,3.20
2023-10-09T02:35:48.711Z,2.50
2023-10-09T02:38:24.255Z,2.10
2023-10-09T02:41:07.647Z,7.00
2023-10-09T02:44:12.352Z,4.90
2023-10-09T02:47:21.012Z,4.30
2023-10-09T02:50:26.213Z,3.30
2023-10-09T02:53:33.149Z,3.10
2023-10-09T02:56:17.425Z,3.90
2023-10-09T02:58:49.581Z,5.50
2023-10-09T03:01:24.765Z,5.30
2023-10-09T03:11:44.881Z,4.40
2023-10-09T03:14:30.830Z,3.30
2023-10-09T03:17:17.873Z,3.40
2023-10-09T03:20:03.148Z,1.50
2023-10-09T03:36:30.268Z,2.50
2023-10-09T03:40:02.927Z,3.80
2023-10-09T03:44:00.703Z,4.00
2023-10-09T03:47:04.118Z,3.50
2023-10-09T03:49:46.102Z,2.50
2023-10-09T03:52:29.289Z,3.00
2023-10-09T03:56:15.602Z,3.10
2023-10-09T03:58:56.068Z,4.40
2023-10-09T04:01:55.874Z,1.60
2023-10-09T04:08:34.925Z,2.30
2023-10-09T04:11:23.805Z,3.50
2023-10-09T04:14:12.757Z,2.60
2023-10-09T04:17:23.709Z,3.30
2023-10-09T04:20:37.408Z,2.40
2023-10-09T04:24:11.209Z,3.00
2023-10-09T04:27:01.356Z,1.90
2023-10-09T04:29:47.918Z,2.20
2023-10-09T04:32:25.739Z,3.00
2023-10-09T04:35:26.036Z,2.20
2023-10-09T04:38:06.747Z,3.60
2023-10-09T04:41:07.419Z,2.50
2023-10-09T04:48:40.232Z,4.90
2023-10-09T04:52:00.700Z,3.10
2023-10-09T04:58:44.266Z,3.70
2023-10-09T05:01:15.943Z,2.90
2023-10-09T05:03:45.022Z,3.50
2023-10-09T05:06:22.415Z,3.00
2023-10-09T05:12:16.185Z,2.90
2023-10-09T05:15:08.925Z,4.10
2023-10-09T05:19:00.151Z,3.70
2023-10-09T05:21:45.182Z,6.50
2023-10-09T05:24:14.087Z,4.10
2023-10-09T05:35:00.574Z,3.70
2023-10-09T05:37:43.732Z,4.50
2023-10-09T05:40:18.063Z,3.20
2023-10-09T05:42:47.484Z,4.50
2023-10-09T05:45:18.349Z,6.60
2023-10-09T05:47:55.253Z,4.50
2023-10-09T05:50:24.091Z,3.10
2023-10-09T05:53:03.021Z,3.00
2023-10-09T05:55:56.055Z,3.60
2023-10-09T06:01:39.066Z,4.10
2023-10-09T06:04:18.870Z,3.00
2023-10-09T06:06:47.675Z,4.60
2023-10-09T06:09:17.457Z,4.50
2023-10-09T06:11:57.031Z,3.30
2023-10-09T06:14:36.647Z,3.50
2023-10-09T06:20:38.433Z,2.80
2023-10-09T06:23:24.591Z,3.30
2023-10-09T06:26:07.573Z,3.80
2023-10-09T06:28:50.492Z,4.80
2023-10-09T06:35:23.894Z,4.20
2023-10-09T06:38:01.896Z,4.50
2023-10-09T06:40:54.221Z,4.00
2023-10-09T06:43:26.090Z,3.90
2023-10-09T06:46:20.434Z,3.70
2023-10-09T06:48:56.928Z,4.00
2023-10-09T06:51:28.237Z,3.50
2023-10-09T06:54:26.520Z,3.30
2023-10-09T06:57:13.919Z,3.80
2023-10-09T07:00:12.444Z,2.60
2023-10-09T07:02:48.778Z,4.40
2023-10-09T07:05:19.285Z,4.50
2023-10-09T07:07:55.769Z,5.80
2023-10-09T07:10:34.402Z,4.40
2023-10-09T07:13:12.667Z,3.60
2023-10-09T07:16:07.212Z,4.40
2023-10-09T07:19:11.105Z,3.60
2023-10-09T07:22:02.981Z,3.40
2023-10-09T07:24:44.400Z,2.90
2023-10-09T07:27:44.901Z,5.10
2023-10-09T07:30:30.878Z,2.80
2023-10-09T07:33:13.103Z,3.60
2023-10-09T07:35:58.270Z,3.50
2023-10-09T07:38:36.258Z,4.30
2023-10-09T07:41:42.076Z,2.60
2023-10-09T07:44:32.869Z,2.80
2023-10-09T07:47:44.282Z,3.50
2023-10-09T07:50:21.812Z,3.30
2023-10-09T07:52:52.035Z,3.10
2023-10-09T07:55:30.456Z,4.40
2023-10-09T07:58:13.199Z,4.90
2023-10-09T08:01:01.670Z,2.90
2023-10-09T08:03:38.685Z,4.80
2023-10-09T08:06:28.553Z,3.10
2023-10-09T08:09:20.236Z,3.20
2023-10-09T08:12:14.577Z,4.40
2023-10-09T08:14:49.039Z,3.40
2023-10-09T08:17:22.046Z,3.30
2023-10-09T08:19:54.910Z,3.80
2023-10-09T08:22:32.009Z,3.30
2023-10-09T08:25:07.989Z,6.10
2023-10-09T08:27:49.867Z,3.80
2023-10-09T08:30:22.550Z,4.30
2023-10-09T08:36:23.679Z,2.80
2023-10-09T08:38:58.909Z,2.60
2023-10-09T08:41:34.483Z,4.30
2023-10-09T08:44:18.566Z,3.10
2023-10-09T08:46:52.246Z,4.50
2023-10-09T08:49:26.130Z,4.60
2023-10-09T08:53:14.644Z,3.50
2023-10-09T08:55:47.247Z,2.80
2023-10-09T09:01:23.387Z,3.50
2023-10-09T09:03:57.508Z,3.70
2023-10-09T09:06:57.403Z,3.90
2023-10-09T09:09:34.838Z,4.30
2023-10-09T09:12:15.583Z,3.00
2023-10-09T09:14:45.278Z,5.30
2023-10-09T09:17:14.346Z,3.30
2023-10-09T09:19:43.263Z,3.20
2023-10-09T09:22:13.951Z,3.00
2023-10-09T09:24:47.869Z,3.60
2023-10-09T09:27:21.431Z,4.60
2023-10-09T09:29:55.112Z,3.40
2023-10-09T09:32:36.361Z,3.30
2023-10-09T09:35:08.067Z,3.30
2023-10-09T09:37:44.612Z,4.90
2023-10-09T09:40:31.296Z,3.10
2023-10-09T09:43:11.786Z,3.60
2023-10-09T09:45:50.254Z,3.80
2023-10-09T09:48:19.809Z,4.00
2023-10-09T09:50:55.560Z,3.30
2023-10-09T09:53:24.609Z,3.00
2023-10-09T09:55:58.784Z,3.10
2023-10-09T09:58:42.931Z,4.60
2023-10-09T10:01:35.976Z,3.80
2023-10-09T10:04:12.425Z,2.10
2023-10-09T10:06:43.039Z,3.70
2023-10-09T10:09:12.967Z,5.20
2023-10-09T10:11:46.861Z,4.50
2023-10-09T10:14:32.156Z,6.30
2023-10-09T10:17:06.351Z,3.70
2023-10-09T10:20:19.328Z,2.90
2023-10-09T10:22:51.628Z,2.50
2023-10-09T10:25:41.966Z,2.80
2023-10-09T10:28:43.176Z,3.10
2023-10-09T10:31:14.536Z,2.80
2023-10-09T10:34:08.018Z,2.90
2023-10-09T10:36:43.644Z,2.70
2023-10-09T10:39:16.784Z,3.10
2023-10-09T10:41:58.347Z,2.70
2023-10-09T10:44:36.509Z,3.40
2023-10-09T10:47:29.796Z,3.60
2023-10-09T10:50:22.590Z,4.50
2023-10-09T10:53:02.200Z,3.90
2023-10-09T10:55:38.475Z,3.10
2023-10-09T10:58:36.390Z,4.60
2023-10-09T11:02:15.787Z,4.50
2023-10-09T11:04:59.429Z,3.20
2023-10-09T11:19:22.926Z,4.10
2023-10-09T11:27:01.682Z,5.10
2023-10-09T11:29:57.151Z,5.20
2023-10-09T11:51:50.002Z,2.30
2023-10-09T11:59:38.536Z,4.10
2023-10-09T12:03:19.526Z,3.00
2023-10-09T12:06:24.377Z,3.60
2023-10-09T12:09:24.631Z,3.80
2023-10-09T12:13:06.760Z,3.60
2023-10-09T12:23:10.307Z,4.70
2023-10-09T12:26:57.492Z,1.90
2023-10-09T12:57:30.664Z,4.80
2023-10-09T13:09:46.719Z,3.60
2023-10-09T13:12:44.444Z,2.70
2023-10-09T13:34:41.889Z,3.80
2023-10-09T13:42:06.963Z,3.10
2023-10-09T13:45:05.289Z,3.30
2023-10-09T13:56:22.036Z,4.20
2023-10-09T14:06:20.399Z,3.20
2023-10-09T14:08:54.720Z,6.60
2023-10-09T14:11:48.029Z,3.60
2023-10-09T14:14:50.942Z,2.90
2023-10-09T14:17:34.352Z,2.70
2023-10-09T14:20:33.149Z,7.20
2023-10-09T14:23:20.834Z,3.30
2023-10-09T14:27:25.612Z,4.40
2023-10-09T15:14:01.709Z,4.10
2023-10-09T15:17:27.700Z,6.50
2023-10-09T15:20:51.042Z,4.30
2023-10-09T15:23:37.388Z,3.80
2023-10-09T15:26:20.136Z,5.00
2023-10-09T15:29:18.382Z,5.60
2023-10-09T15:32:49.929Z,6.00
2023-10-09T15:35:53.749Z,5.40
2023-10-09T15:41:59.225Z,6.20
2023-10-09T15:44:56.458Z,6.50
2023-10-09T15:47:33.493Z,4.60
2023-10-09T15:50:02.801Z,10.90
2023-10-09T15:52:32.451Z,5.40
2023-10-09T15:55:04.775Z,7.10
2023-10-09T15:57:34.850Z,8.50
2023-10-09T16:00:30.796Z,9.60
2023-10-09T16:02:58.129Z,7.00
2023-10-09T16:05:31.104Z,8.80
2023-10-09T16:08:09.040Z,13.00
2023-10-09T16:10:37.192Z,12.50
2023-10-09T16:13:13.614Z,8.40
2023-10-09T16:15:45.407Z,17.90
2023-10-09T16:18:40.081Z,14.60
2023-10-09T16:21:13.454Z,21.60
2023-10-09T16:24:18.002Z,9.80
2023-10-09T16:30:57.871Z,9.90
2023-10-09T16:42:55.763Z,13.10
2023-10-09T16:46:15.969Z,13.80
2023-10-09T16:49:33.766Z,12.00
2023-10-09T16:52:16.560Z,12.60
2023-10-09T16:55:25.073Z,10.60
2023-10-09T16:58:31.340Z,10.20
2023-10-09T17:02:19.895Z,13.80
2023-10-09T17:05:30.930Z,13.40
2023-10-09T17:09:44.316Z,15.60
2023-10-09T17:12:27.996Z,12.60
2023-10-09T17:15:41.861Z,9.10
2023-10-09T17:18:15.112Z,13.20
2023-10-09T17:21:01.113Z,12.40
2023-10-09T17:24:10.339Z,12.30
2023-10-09T17:26:49.336Z,11.70
2023-10-09T17:29:38.373Z,13.30
2023-10-09T17:33:11.799Z,9.20
2023-10-09T17:37:31.282Z,14.50
2023-10-09T17:40:53.291Z,10.60
2023-10-09T17:43:51.176Z,11.70
2023-10-09T17:47:04.274Z,12.30
2023-10-09T17:53:52.215Z,12.80
2023-10-09T17:57:33.657Z,9.40
2023-10-09T18:00:39.416Z,15.60
2023-10-09T18:03:18.511Z,8.00
2023-10-09T18:11:34.812Z,7.00
2023-10-09T18:26:09.970Z,4.60
2023-10-09T18:34:05.974Z,6.70
2023-10-09T18:39:32.296Z,5.30
2023-10-09T18:42:23.612Z,5.00
2023-10-09T18:46:15.037Z,6.80
2023-10-09T18:49:17.012Z,6.10
2023-10-09T18:56:49.371Z,9.50
2023-10-09T19:00:39.543Z,8.80
2023-10-09T19:03:54.914Z,6.30
2023-10-09T19:16:42.936Z,6.40
2023-10-09T19:19:50.701Z,8.80
